Gaborone, Botswana
Current Conditions -  °F | °C
As of 12:00 PM on Friday 19 Dec 2014 (Local Time) from FBSK Reporting Station
Scattered Clouds Scattered Clouds  
Wind Chill: 84°   Ceiling: Unl
Heat Index: 84°   Visibility: 6mi
Dew Point: 61°   Wind: 8mph
Humidity: 45%   Direction: 60°ENE
Pressure: 30"   Gusts: NA
Location:  24.65°S, 25.91°E
Report Text: FBSK 191000Z 06007KT 340V140 9999 SCT030 FEW035TCU 29/16 Q1016 NOSIG
Loading
Personal Weather Stations






























Interactive Weather Map New forecast layout! Learn more

10-Day Weather Forecast

Advertisements
Track Severe Weather on mobile